Terminal Aerodrome Forecast
Issued by NWS

Home | Current Version | Previous Version | Graphics & Text | Print | Product List | Glossary On
Versions: 1 2 3 4 5 6 7 8 9 10 11 12 13 14 15 16 17
000
FTUS43 KMPX 011123
TAFRNH
TAF
KRNH 011123Z 0112/0212 21008KT P6SM SCT011 BKN020
      TEMPO 0112/0113 6SM -SN
     FM011400 26008KT P6SM SCT250
     FM012000 28010G15KT P6SM FEW020 BKN050
     FM020300 28008KT P6SM SKC=

USA.gov is the U.S. government's official web portal to all federal, state and local government web resources and services.